sensor_id;sensor_type;location;lat;lon;timestamp;pressure;altitude;pressure_sealevel;temperature;humidity
27729;BME280;15126;42.186;24.340;2023-12-07T00:01:33;98953.38;;;5.94;98.85
27729;BME280;15126;42.186;24.340;2023-12-07T00:04:00;98953.38;;;5.91;98.89
27729;BME280;15126;42.186;24.340;2023-12-07T00:06:28;98920.72;;;5.72;98.75
27729;BME280;15126;42.186;24.340;2023-12-07T00:08:56;98946.31;;;5.86;98.73
27729;BME280;15126;42.186;24.340;2023-12-07T00:11:24;98937.22;;;5.82;98.75
27729;BME280;15126;42.186;24.340;2023-12-07T00:13:51;98943.13;;;5.84;98.62
27729;BME280;15126;42.186;24.340;2023-12-07T00:16:18;98943.19;;;5.77;98.89
27729;BME280;15126;42.186;24.340;2023-12-07T00:18:45;98944.78;;;5.78;98.72
27729;BME280;15126;42.186;24.340;2023-12-07T00:21:12;98946.78;;;5.71;98.85
27729;BME280;15126;42.186;24.340;2023-12-07T00:23:39;98957.03;;;5.74;98.90
27729;BME280;15126;42.186;24.340;2023-12-07T00:26:07;98953.50;;;5.73;98.70
27729;BME280;15126;42.186;24.340;2023-12-07T00:28:35;98955.50;;;5.73;98.88
27729;BME280;15126;42.186;24.340;2023-12-07T00:31:02;98934.66;;;5.58;98.73
27729;BME280;15126;42.186;24.340;2023-12-07T00:33:29;98951.22;;;5.65;98.71
27729;BME280;15126;42.186;24.340;2023-12-07T00:35:57;98924.91;;;5.39;99.27
27729;BME280;15126;42.186;24.340;2023-12-07T00:38:24;98959.59;;;5.51;100.00
27729;BME280;15126;42.186;24.340;2023-12-07T00:40:51;98963.53;;;5.53;100.00
27729;BME280;15126;42.186;24.340;2023-12-07T00:43:20;98942.72;;;5.38;100.00
27729;BME280;15126;42.186;24.340;2023-12-07T00:45:47;98969.44;;;5.55;100.00
27729;BME280;15126;42.186;24.340;2023-12-07T00:48:14;98973.41;;;5.54;100.00
27729;BME280;15126;42.186;24.340;2023-12-07T00:50:41;98968.69;;;5.51;100.00
27729;BME280;15126;42.186;24.340;2023-12-07T00:53:10;98965.94;;;5.48;100.00
27729;BME280;15126;42.186;24.340;2023-12-07T00:55:37;98976.53;;;5.56;100.00
27729;BME280;15126;42.186;24.340;2023-12-07T00:58:05;98976.91;;;5.58;100.00
27729;BME280;15126;42.186;24.340;2023-12-07T01:00:33;98963.53;;;5.50;100.00
27729;BME280;15126;42.186;24.340;2023-12-07T01:03:00;98971.41;;;5.55;100.00
27729;BME280;15126;42.186;24.340;2023-12-07T01:05:27;98973.50;;;5.40;100.00
27729;BME280;15126;42.186;24.340;2023-12-07T01:07:54;98958.53;;;5.30;100.00
27729;BME280;15126;42.186;24.340;2023-12-07T01:10:21;98966.47;;;5.25;100.00
27729;BME280;15126;42.186;24.340;2023-12-07T01:12:47;98959.31;;;5.31;100.00
27729;BME280;15126;42.186;24.340;2023-12-07T01:15:14;98961.28;;;5.37;100.00
27729;BME280;15126;42.186;24.340;2023-12-07T01:17:43;98964.41;;;5.43;100.00
27729;BME280;15126;42.186;24.340;2023-12-07T01:20:11;98963.97;;;5.48;100.00
27729;BME280;15126;42.186;24.340;2023-12-07T01:22:39;98963.94;;;5.52;100.00
27729;BME280;15126;42.186;24.340;2023-12-07T01:25:07;98959.59;;;5.54;100.00
27729;BME280;15126;42.186;24.340;2023-12-07T01:27:34;98961.13;;;5.55;100.00
27729;BME280;15126;42.186;24.340;2023-12-07T01:30:00;98958.41;;;5.52;100.00
27729;BME280;15126;42.186;24.340;2023-12-07T01:32:28;98952.84;;;5.55;100.00
27729;BME280;15126;42.186;24.340;2023-12-07T01:34:56;98946.16;;;5.49;100.00
27729;BME280;15126;42.186;24.340;2023-12-07T01:37:23;98931.56;;;5.49;100.00
27729;BME280;15126;42.186;24.340;2023-12-07T01:39:50;98902.88;;;5.28;100.00
27729;BME280;15126;42.186;24.340;2023-12-07T01:42:17;98944.19;;;5.50;100.00
27729;BME280;15126;42.186;24.340;2023-12-07T01:44:44;98929.28;;;5.33;100.00
27729;BME280;15126;42.186;24.340;2023-12-07T01:47:11;98941.13;;;5.37;100.00
27729;BME280;15126;42.186;24.340;2023-12-07T01:49:39;98943.44;;;5.42;100.00
27729;BME280;15126;42.186;24.340;2023-12-07T01:52:08;98948.56;;;5.43;100.00
27729;BME280;15126;42.186;24.340;2023-12-07T01:54:36;98937.94;;;5.42;100.00
27729;BME280;15126;42.186;24.340;2023-12-07T01:57:04;98936.41;;;5.30;100.00
27729;BME280;15126;42.186;24.340;2023-12-07T01:59:32;98926.56;;;5.29;100.00
27729;BME280;15126;42.186;24.340;2023-12-07T02:01:59;98937.94;;;5.38;100.00
27729;BME280;15126;42.186;24.340;2023-12-07T02:04:26;98949.06;;;5.28;100.00
27729;BME280;15126;42.186;24.340;2023-12-07T02:06:56;98941.56;;;5.28;100.00
27729;BME280;15126;42.186;24.340;2023-12-07T02:09:25;98941.56;;;5.32;100.00
27729;BME280;15126;42.186;24.340;2023-12-07T02:11:52;98942.72;;;5.31;100.00
27729;BME280;15126;42.186;24.340;2023-12-07T02:14:19;98930.09;;;5.30;100.00
27729;BME280;15126;42.186;24.340;2023-12-07T02:16:50;98948.22;;;5.38;100.00
27729;BME280;15126;42.186;24.340;2023-12-07T02:19:31;98945.50;;;5.31;100.00
27729;BME280;15126;42.186;24.340;2023-12-07T02:22:16;98930.53;;;5.25;100.00
27729;BME280;15126;42.186;24.340;2023-12-07T02:24:48;98949.19;;;5.10;100.00
27729;BME280;15126;42.186;24.340;2023-12-07T02:27:34;98952.00;;;5.00;100.00
27729;BME280;15126;42.186;24.340;2023-12-07T02:30:02;98944.44;;;5.11;100.00
27729;BME280;15126;42.186;24.340;2023-12-07T02:32:29;98950.38;;;5.09;100.00
27729;BME280;15126;42.186;24.340;2023-12-07T02:34:56;98954.66;;;5.17;100.00
27729;BME280;15126;42.186;24.340;2023-12-07T02:37:24;98951.47;;;5.22;100.00
27729;BME280;15126;42.186;24.340;2023-12-07T02:39:55;98956.97;;;5.26;100.00
27729;BME280;15126;42.186;24.340;2023-12-07T02:42:22;98928.59;;;5.18;100.00
27729;BME280;15126;42.186;24.340;2023-12-07T02:44:52;98932.13;;;5.22;100.00
27729;BME280;15126;42.186;24.340;2023-12-07T02:47:20;98937.19;;;5.31;100.00
27729;BME280;15126;42.186;24.340;2023-12-07T02:49:46;98939.53;;;5.36;100.00
27729;BME280;15126;42.186;24.340;2023-12-07T02:52:13;98923.75;;;5.33;100.00
27729;BME280;15126;42.186;24.340;2023-12-07T02:54:40;98926.88;;;5.42;100.00
27729;BME280;15126;42.186;24.340;2023-12-07T02:57:07;98929.25;;;5.40;100.00
27729;BME280;15126;42.186;24.340;2023-12-07T02:59:34;98914.28;;;5.37;100.00
27729;BME280;15126;42.186;24.340;2023-12-07T03:02:03;98921.31;;;5.46;100.00
27729;BME280;15126;42.186;24.340;2023-12-07T03:04:30;98918.94;;;5.48;100.00
27729;BME280;15126;42.186;24.340;2023-12-07T03:06:57;98915.00;;;5.45;100.00
27729;BME280;15126;42.186;24.340;2023-12-07T03:09:24;98911.78;;;5.50;100.00
27729;BME280;15126;42.186;24.340;2023-12-07T03:11:51;98925.97;;;5.56;100.00
27729;BME280;15126;42.186;24.340;2023-12-07T03:14:19;98926.34;;;5.58;100.00
27729;BME280;15126;42.186;24.340;2023-12-07T03:16:46;98928.31;;;5.57;100.00
27729;BME280;15126;42.186;24.340;2023-12-07T03:19:14;98929.13;;;5.58;99.93
27729;BME280;15126;42.186;24.340;2023-12-07T03:21:42;98929.97;;;5.51;100.00
27729;BME280;15126;42.186;24.340;2023-12-07T03:24:09;98928.81;;;5.45;100.00
27729;BME280;15126;42.186;24.340;2023-12-07T03:26:36;98915.81;;;5.42;100.00
27729;BME280;15126;42.186;24.340;2023-12-07T03:29:03;98927.94;;;5.55;100.00
27729;BME280;15126;42.186;24.340;2023-12-07T03:31:30;98935.50;;;5.51;100.00
27729;BME280;15126;42.186;24.340;2023-12-07T03:33:58;98924.44;;;5.51;100.00
27729;BME280;15126;42.186;24.340;2023-12-07T03:36:27;98910.28;;;5.42;100.00
27729;BME280;15126;42.186;24.340;2023-12-07T03:38:54;98904.75;;;5.38;100.00
27729;BME280;15126;42.186;24.340;2023-12-07T03:41:21;98927.56;;;5.57;100.00
27729;BME280;15126;42.186;24.340;2023-12-07T03:43:48;98935.44;;;5.58;100.00
27729;BME280;15126;42.186;24.340;2023-12-07T03:46:15;98922.84;;;5.54;100.00
27729;BME280;15126;42.186;24.340;2023-12-07T03:48:41;98925.97;;;5.59;99.96
27729;BME280;15126;42.186;24.340;2023-12-07T03:51:12;98914.91;;;5.56;99.87
27729;BME280;15126;42.186;24.340;2023-12-07T03:53:41;98912.97;;;5.49;99.62
27729;BME280;15126;42.186;24.340;2023-12-07T03:56:09;98909.44;;;5.49;99.54
27729;BME280;15126;42.186;24.340;2023-12-07T03:58:38;98929.09;;;5.61;99.49
27729;BME280;15126;42.186;24.340;2023-12-07T04:01:04;98931.44;;;5.63;99.48
27729;BME280;15126;42.186;24.340;2023-12-07T04:03:31;98908.28;;;5.46;99.27
27729;BME280;15126;42.186;24.340;2023-12-07T04:05:58;98931.44;;;5.63;99.61
27729;BME280;15126;42.186;24.340;2023-12-07T04:08:26;98919.66;;;5.55;99.79
27729;BME280;15126;42.186;24.340;2023-12-07T04:10:54;98920.44;;;5.59;100.00
27729;BME280;15126;42.186;24.340;2023-12-07T04:13:24;98914.50;;;5.57;100.00
27729;BME280;15126;42.186;24.340;2023-12-07T04:15:51;98909.81;;;5.51;100.00
27729;BME280;15126;42.186;24.340;2023-12-07T04:18:18;98914.13;;;5.55;100.00
27729;BME280;15126;42.186;24.340;2023-12-07T04:20:45;98921.16;;;5.63;100.00
27729;BME280;15126;42.186;24.340;2023-12-07T04:23:11;98916.09;;;5.55;100.00
27729;BME280;15126;42.186;24.340;2023-12-07T04:25:38;98939.72;;;5.66;100.00
27729;BME280;15126;42.186;24.340;2023-12-07T04:28:06;98936.16;;;5.69;100.00
27729;BME280;15126;42.186;24.340;2023-12-07T04:30:34;98937.75;;;5.67;100.00
27729;BME280;15126;42.186;24.340;2023-12-07T04:33:00;98942.47;;;5.66;99.90
27729;BME280;15126;42.186;24.340;2023-12-07T04:35:30;98933.53;;;5.48;99.91
27729;BME280;15126;42.186;24.340;2023-12-07T04:38:02;98951.25;;;5.58;99.59
27729;BME280;15126;42.186;24.340;2023-12-07T04:40:30;98958.81;;;5.50;99.14
27729;BME280;15126;42.186;24.340;2023-12-07T04:42:57;98954.97;;;5.33;98.57
27729;BME280;15126;42.186;24.340;2023-12-07T04:45:25;98953.03;;;5.27;98.00
27729;BME280;15126;42.186;24.340;2023-12-07T04:47:52;98936.53;;;5.09;97.84
27729;BME280;15126;42.186;24.340;2023-12-07T04:50:19;98956.59;;;5.24;97.92
27729;BME280;15126;42.186;24.340;2023-12-07T04:52:46;98957.84;;;5.16;97.90
27729;BME280;15126;42.186;24.340;2023-12-07T04:55:13;98948.03;;;5.04;97.70
27729;BME280;15126;42.186;24.340;2023-12-07T04:57:43;98930.34;;;4.91;97.95
27729;BME280;15126;42.186;24.340;2023-12-07T05:00:11;98931.06;;;5.02;98.09
27729;BME280;15126;42.186;24.340;2023-12-07T05:02:40;98955.50;;;5.11;97.79
27729;BME280;15126;42.186;24.340;2023-12-07T05:05:07;98954.34;;;5.05;97.73
27729;BME280;15126;42.186;24.340;2023-12-07T05:07:35;98953.19;;;4.99;97.57
27729;BME280;15126;42.186;24.340;2023-12-07T05:10:04;98947.66;;;4.99;97.88
27729;BME280;15126;42.186;24.340;2023-12-07T05:12:31;98942.94;;;4.96;97.73
27729;BME280;15126;42.186;24.340;2023-12-07T05:14:58;98954.75;;;5.00;97.98
27729;BME280;15126;42.186;24.340;2023-12-07T05:17:25;98968.59;;;5.00;97.70
27729;BME280;15126;42.186;24.340;2023-12-07T05:19:53;98970.56;;;4.96;97.64
27729;BME280;15126;42.186;24.340;2023-12-07T05:22:20;98970.56;;;4.96;98.29
27729;BME280;15126;42.186;24.340;2023-12-07T05:24:48;98962.69;;;4.94;97.81
27729;BME280;15126;42.186;24.340;2023-12-07T05:27:15;98966.63;;;4.93;98.01
27729;BME280;15126;42.186;24.340;2023-12-07T05:29:42;98960.72;;;4.88;98.04
27729;BME280;15126;42.186;24.340;2023-12-07T05:32:09;98975.31;;;4.92;97.49
27729;BME280;15126;42.186;24.340;2023-12-07T05:34:36;98988.34;;;4.88;98.00
27729;BME280;15126;42.186;24.340;2023-12-07T05:37:06;98922.63;;;4.44;97.67
27729;BME280;15126;42.186;24.340;2023-12-07T05:39:33;98969.84;;;4.74;97.78
27729;BME280;15126;42.186;24.340;2023-12-07T05:42:03;98971.06;;;4.69;97.58
27729;BME280;15126;42.186;24.340;2023-12-07T05:44:30;98987.97;;;4.78;98.46
27729;BME280;15126;42.186;24.340;2023-12-07T05:46:57;98989.56;;;4.76;98.55
27729;BME280;15126;42.186;24.340;2023-12-07T05:49:24;99003.38;;;4.83;98.54
27729;BME280;15126;42.186;24.340;2023-12-07T05:51:52;99000.25;;;4.77;98.70
27729;BME280;15126;42.186;24.340;2023-12-07T05:54:23;99006.16;;;4.76;99.07
27729;BME280;15126;42.186;24.340;2023-12-07T05:56:50;99009.69;;;4.80;99.42
27729;BME280;15126;42.186;24.340;2023-12-07T05:59:17;98998.28;;;4.74;99.69
27729;BME280;15126;42.186;24.340;2023-12-07T06:01:44;98930.94;;;4.33;99.24
27729;BME280;15126;42.186;24.340;2023-12-07T06:04:11;98979.34;;;4.62;100.00
27729;BME280;15126;42.186;24.340;2023-12-07T06:06:38;99022.69;;;4.87;99.45
27729;BME280;15126;42.186;24.340;2023-12-07T06:09:09;98988.06;;;4.64;99.35
27729;BME280;15126;42.186;24.340;2023-12-07T06:11:38;98999.44;;;4.77;99.59
27729;BME280;15126;42.186;24.340;2023-12-07T06:14:05;98997.44;;;4.81;99.99
27729;BME280;15126;42.186;24.340;2023-12-07T06:16:33;99009.28;;;4.89;99.82
27729;BME280;15126;42.186;24.340;2023-12-07T06:19:00;99023.06;;;4.96;99.55
27729;BME280;15126;42.186;24.340;2023-12-07T06:21:29;99022.63;;;5.01;99.63
27729;BME280;15126;42.186;24.340;2023-12-07T06:23:56;98973.41;;;4.67;99.53
27729;BME280;15126;42.186;24.340;2023-12-07T06:26:24;99003.75;;;4.81;99.63
27729;BME280;15126;42.186;24.340;2023-12-07T06:28:53;99031.34;;;4.99;99.76
27729;BME280;15126;42.186;24.340;2023-12-07T06:31:24;99041.94;;;5.11;100.00
27729;BME280;15126;42.186;24.340;2023-12-07T06:33:51;99010.81;;;4.97;100.00
27729;BME280;15126;42.186;24.340;2023-12-07T06:36:18;99056.53;;;5.19;100.00
27729;BME280;15126;42.186;24.340;2023-12-07T06:38:46;99036.00;;;5.16;99.82
27729;BME280;15126;42.186;24.340;2023-12-07T06:41:16;99060.81;;;5.30;100.00
27729;BME280;15126;42.186;24.340;2023-12-07T06:43:44;99025.72;;;5.17;100.00
27729;BME280;15126;42.186;24.340;2023-12-07T06:46:13;99050.47;;;5.45;99.93
27729;BME280;15126;42.186;24.340;2023-12-07T06:48:42;99039.00;;;5.47;99.98
27729;BME280;15126;42.186;24.340;2023-12-07T06:51:08;99054.38;;;5.55;99.82
27729;BME280;15126;42.186;24.340;2023-12-07T06:53:35;99052.38;;;5.62;99.40
27729;BME280;15126;42.186;24.340;2023-12-07T06:56:02;99051.59;;;5.62;99.90
27729;BME280;15126;42.186;24.340;2023-12-07T06:58:32;99040.50;;;5.65;99.95
27729;BME280;15126;42.186;24.340;2023-12-07T07:00:59;99052.25;;;5.83;100.00
27729;BME280;15126;42.186;24.340;2023-12-07T07:03:29;99045.88;;;5.90;100.00
27729;BME280;15126;42.186;24.340;2023-12-07T07:05:55;99058.09;;;5.99;100.00
27729;BME280;15126;42.186;24.340;2023-12-07T07:08:23;99034.44;;;5.91;99.56
27729;BME280;15126;42.186;24.340;2023-12-07T07:10:50;99034.81;;;5.90;98.88
27729;BME280;15126;42.186;24.340;2023-12-07T07:13:17;99047.75;;;6.04;99.27
27729;BME280;15126;42.186;24.340;2023-12-07T07:15:45;99046.59;;;6.05;99.11
27729;BME280;15126;42.186;24.340;2023-12-07T07:18:13;99056.03;;;6.11;99.23
27729;BME280;15126;42.186;24.340;2023-12-07T07:20:41;98993.78;;;5.78;99.36
27729;BME280;15126;42.186;24.340;2023-12-07T07:23:13;99045.34;;;6.09;98.60
27729;BME280;15126;42.186;24.340;2023-12-07T07:25:40;99041.75;;;6.16;97.77
27729;BME280;15126;42.186;24.340;2023-12-07T07:28:07;99046.03;;;6.24;97.41
27729;BME280;15126;42.186;24.340;2023-12-07T07:30:34;99055.84;;;6.32;97.59
27729;BME280;15126;42.186;24.340;2023-12-07T07:33:01;99060.94;;;6.40;97.84
27729;BME280;15126;42.186;24.340;2023-12-07T07:35:28;99066.41;;;6.47;98.07
27729;BME280;15126;42.186;24.340;2023-12-07T07:37:57;99069.06;;;6.58;98.26
27729;BME280;15126;42.186;24.340;2023-12-07T07:40:24;99043.44;;;6.47;97.94
27729;BME280;15126;42.186;24.340;2023-12-07T07:42:51;99038.69;;;6.47;97.91
27729;BME280;15126;42.186;24.340;2023-12-07T07:45:19;99074.50;;;6.69;97.36
27729;BME280;15126;42.186;24.340;2023-12-07T07:47:46;99072.97;;;6.64;96.67
27729;BME280;15126;42.186;24.340;2023-12-07T07:50:13;99063.16;;;6.56;96.41
27729;BME280;15126;42.186;24.340;2023-12-07T07:52:39;99052.44;;;6.58;96.34
27729;BME280;15126;42.186;24.340;2023-12-07T07:55:09;99057.22;;;6.57;96.63
27729;BME280;15126;42.186;24.340;2023-12-07T07:57:36;99075.63;;;6.78;96.95
27729;BME280;15126;42.186;24.340;2023-12-07T08:00:04;99057.41;;;6.77;97.35
27729;BME280;15126;42.186;24.340;2023-12-07T08:02:36;99049.88;;;6.78;97.17
27729;BME280;15126;42.186;24.340;2023-12-07T08:05:03;99065.56;;;6.91;96.66
27729;BME280;15126;42.186;24.340;2023-12-07T08:07:30;99067.88;;;7.00;96.91
27729;BME280;15126;42.186;24.340;2023-12-07T08:09:57;99072.56;;;7.06;96.63
27729;BME280;15126;42.186;24.340;2023-12-07T08:12:26;99081.16;;;7.15;96.68
27729;BME280;15126;42.186;24.340;2023-12-07T08:14:53;99062.16;;;7.14;96.16
27729;BME280;15126;42.186;24.340;2023-12-07T08:17:20;99092.09;;;7.30;95.86
27729;BME280;15126;42.186;24.340;2023-12-07T08:19:47;99084.91;;;7.32;96.10
27729;BME280;15126;42.186;24.340;2023-12-07T08:22:13;99086.44;;;7.37;96.06
27729;BME280;15126;42.186;24.340;2023-12-07T08:24:42;99094.97;;;7.53;96.01
27729;BME280;15126;42.186;24.340;2023-12-07T08:27:09;99077.59;;;7.49;96.36
27729;BME280;15126;42.186;24.340;2023-12-07T08:29:38;98946.22;;;6.72;96.02
27729;BME280;15126;42.186;24.340;2023-12-07T08:32:07;99090.72;;;7.75;95.63
27729;BME280;15126;42.186;24.340;2023-12-07T08:34:34;99069.91;;;7.60;95.39
27729;BME280;15126;42.186;24.340;2023-12-07T08:37:03;99097.84;;;7.76;95.33
27729;BME280;15126;42.186;24.340;2023-12-07T08:39:30;99102.59;;;7.75;94.79
27729;BME280;15126;42.186;24.340;2023-12-07T08:41:56;99088.31;;;7.77;95.45
27729;BME280;15126;42.186;24.340;2023-12-07T08:44:24;99080.25;;;7.56;96.15
27729;BME280;15126;42.186;24.340;2023-12-07T08:46:52;99098.69;;;7.73;96.18
27729;BME280;15126;42.186;24.340;2023-12-07T08:49:22;99029.81;;;7.34;96.53
27729;BME280;15126;42.186;24.340;2023-12-07T08:51:49;99083.53;;;7.77;96.96
27729;BME280;15126;42.186;24.340;2023-12-07T08:54:16;99092.09;;;7.90;96.52
27729;BME280;15126;42.186;24.340;2023-12-07T08:56:44;99088.19;;;7.88;96.63
27729;BME280;15126;42.186;24.340;2023-12-07T08:59:11;99041.69;;;7.65;96.56
27729;BME280;15126;42.186;24.340;2023-12-07T09:01:38;99086.88;;;7.96;96.31
27729;BME280;15126;42.186;24.340;2023-12-07T09:04:07;99096.00;;;7.96;96.41
27729;BME280;15126;42.186;24.340;2023-12-07T09:06:34;99092.81;;;7.94;96.23
27729;BME280;15126;42.186;24.340;2023-12-07T09:09:02;99086.44;;;7.97;96.18
27729;BME280;15126;42.186;24.340;2023-12-07T09:11:29;99085.03;;;8.12;96.70
27729;BME280;15126;42.186;24.340;2023-12-07T09:13:56;99082.97;;;8.16;96.52
27729;BME280;15126;42.186;24.340;2023-12-07T09:16:23;99072.63;;;8.20;96.56
27729;BME280;15126;42.186;24.340;2023-12-07T09:18:51;99081.13;;;8.36;95.90
27729;BME280;15126;42.186;24.340;2023-12-07T09:21:19;99084.88;;;8.50;95.60
27729;BME280;15126;42.186;24.340;2023-12-07T09:23:47;99069.34;;;8.52;96.28
27729;BME280;15126;42.186;24.340;2023-12-07T09:26:15;99074.56;;;8.70;94.75
27729;BME280;15126;42.186;24.340;2023-12-07T09:28:46;99066.47;;;8.79;94.29
27729;BME280;15126;42.186;24.340;2023-12-07T09:31:13;99080.78;;;9.01;92.88
27729;BME280;15126;42.186;24.340;2023-12-07T09:33:42;99075.84;;;9.08;93.18
27729;BME280;15126;42.186;24.340;2023-12-07T09:36:09;99062.25;;;9.14;92.76
27729;BME280;15126;42.186;24.340;2023-12-07T09:38:40;99052.63;;;9.18;92.32
27729;BME280;15126;42.186;24.340;2023-12-07T09:41:07;99053.91;;;9.33;91.32
27729;BME280;15126;42.186;24.340;2023-12-07T09:43:36;99069.47;;;9.50;90.44
27729;BME280;15126;42.186;24.340;2023-12-07T09:46:03;99056.13;;;9.22;88.28
27729;BME280;15126;42.186;24.340;2023-12-07T09:48:31;99067.13;;;9.29;87.54
27729;BME280;15126;42.186;24.340;2023-12-07T09:50:59;99079.88;;;9.46;87.67
27729;BME280;15126;42.186;24.340;2023-12-07T09:53:27;99031.72;;;9.30;88.49
27729;BME280;15126;42.186;24.340;2023-12-07T09:55:57;99051.81;;;9.57;87.31
27729;BME280;15126;42.186;24.340;2023-12-07T09:58:23;99047.09;;;9.54;86.79
27729;BME280;15126;42.186;24.340;2023-12-07T10:00:51;99065.38;;;9.75;86.37
27729;BME280;15126;42.186;24.340;2023-12-07T10:03:23;99060.59;;;9.75;86.46
27729;BME280;15126;42.186;24.340;2023-12-07T10:05:54;99065.53;;;9.84;85.92
27729;BME280;15126;42.186;24.340;2023-12-07T10:08:28;99027.75;;;9.67;85.79
27729;BME280;15126;42.186;24.340;2023-12-07T10:11:04;99051.75;;;9.96;86.37
27729;BME280;15126;42.186;24.340;2023-12-07T10:13:34;99052.34;;;10.04;83.27
27729;BME280;15126;42.186;24.340;2023-12-07T10:16:09;99014.28;;;9.97;82.96
27729;BME280;15126;42.186;24.340;2023-12-07T10:18:37;99025.63;;;10.06;83.59
27729;BME280;15126;42.186;24.340;2023-12-07T10:21:08;99045.78;;;10.14;84.36
27729;BME280;15126;42.186;24.340;2023-12-07T10:23:36;99044.22;;;10.13;84.09
27729;BME280;15126;42.186;24.340;2023-12-07T10:26:06;98999.41;;;9.88;84.34
27729;BME280;15126;42.186;24.340;2023-12-07T10:28:34;99029.84;;;10.14;83.38
27729;BME280;15126;42.186;24.340;2023-12-07T10:31:08;99039.78;;;10.32;83.07
27729;BME280;15126;42.186;24.340;2023-12-07T10:33:38;99035.88;;;10.29;83.69
27729;BME280;15126;42.186;24.340;2023-12-07T10:36:07;98986.44;;;9.97;82.86
27729;BME280;15126;42.186;24.340;2023-12-07T10:38:35;98961.91;;;9.92;83.23
27729;BME280;15126;42.186;24.340;2023-12-07T10:41:06;99030.63;;;10.47;83.75
27729;BME280;15126;42.186;24.340;2023-12-07T10:43:37;98996.66;;;10.36;84.08
27729;BME280;15126;42.186;24.340;2023-12-07T10:46:05;99032.34;;;10.57;83.12
27729;BME280;15126;42.186;24.340;2023-12-07T10:48:33;99012.16;;;10.53;82.61
27729;BME280;15126;42.186;24.340;2023-12-07T10:51:06;99032.44;;;10.70;81.85
27729;BME280;15126;42.186;24.340;2023-12-07T10:53:40;99011.00;;;10.67;82.03
27729;BME280;15126;42.186;24.340;2023-12-07T10:56:13;98969.03;;;10.42;81.63
27729;BME280;15126;42.186;24.340;2023-12-07T10:58:43;99022.22;;;10.80;81.58
27729;BME280;15126;42.186;24.340;2023-12-07T11:01:11;99015.34;;;10.84;80.16
27729;BME280;15126;42.186;24.340;2023-12-07T11:03:40;99011.94;;;10.76;80.82
27729;BME280;15126;42.186;24.340;2023-12-07T11:06:09;99013.75;;;10.83;81.63
27729;BME280;15126;42.186;24.340;2023-12-07T11:08:41;98983.44;;;10.69;81.85
27729;BME280;15126;42.186;24.340;2023-12-07T11:11:24;99012.09;;;10.86;81.43
27729;BME280;15126;42.186;24.340;2023-12-07T11:13:58;99010.50;;;10.85;80.64
27729;BME280;15126;42.186;24.340;2023-12-07T11:16:30;99002.25;;;10.81;80.82
27729;BME280;15126;42.186;24.340;2023-12-07T11:18:57;99003.06;;;10.82;81.39
27729;BME280;15126;42.186;24.340;2023-12-07T11:21:25;99019.91;;;10.91;81.78
27729;BME280;15126;42.186;24.340;2023-12-07T11:23:53;98993.09;;;10.81;82.27
27729;BME280;15126;42.186;24.340;2023-12-07T11:26:22;98992.22;;;10.84;82.03
27729;BME280;15126;42.186;24.340;2023-12-07T11:28:49;98981.94;;;10.81;81.57
27729;BME280;15126;42.186;24.340;2023-12-07T11:31:16;98995.50;;;10.95;82.45
27729;BME280;15126;42.186;24.340;2023-12-07T11:33:43;98997.59;;;10.91;81.73
27729;BME280;15126;42.186;24.340;2023-12-07T11:36:11;98988.19;;;10.85;82.30
27729;BME280;15126;42.186;24.340;2023-12-07T11:41:43;98980.50;;;10.76;83.09
27729;BME280;15126;42.186;24.340;2023-12-07T11:44:10;98996.94;;;10.87;83.14
27729;BME280;15126;42.186;24.340;2023-12-07T11:46:38;98982.53;;;10.88;83.23
27729;BME280;15126;42.186;24.340;2023-12-07T11:49:05;98965.16;;;10.68;82.93
27729;BME280;15126;42.186;24.340;2023-12-07T11:51:37;98995.34;;;10.86;83.04
27729;BME280;15126;42.186;24.340;2023-12-07T11:54:05;98972.78;;;10.80;82.75
27729;BME280;15126;42.186;24.340;2023-12-07T11:56:34;98991.69;;;10.89;82.88
27729;BME280;15126;42.186;24.340;2023-12-07T11:59:02;98988.09;;;10.88;82.13
27729;BME280;15126;42.186;24.340;2023-12-07T12:01:29;98995.06;;;10.96;82.83
27729;BME280;15126;42.186;24.340;2023-12-07T12:03:56;98987.81;;;10.99;83.02
27729;BME280;15126;42.186;24.340;2023-12-07T12:06:29;98992.03;;;10.91;82.09
27729;BME280;15126;42.186;24.340;2023-12-07T12:08:59;98997.41;;;10.98;81.02
27729;BME280;15126;42.186;24.340;2023-12-07T12:11:26;98955.97;;;10.84;80.95
27729;BME280;15126;42.186;24.340;2023-12-07T12:13:53;98977.88;;;10.98;81.85
27729;BME280;15126;42.186;24.340;2023-12-07T12:16:25;98984.28;;;11.11;81.90
27729;BME280;15126;42.186;24.340;2023-12-07T12:18:53;98973.31;;;11.04;81.89
27729;BME280;15126;42.186;24.340;2023-12-07T12:21:20;98967.41;;;10.73;83.01
27729;BME280;15126;42.186;24.340;2023-12-07T12:23:47;98976.66;;;10.99;82.84
27729;BME280;15126;42.186;24.340;2023-12-07T12:26:14;98974.75;;;10.96;82.47
27729;BME280;15126;42.186;24.340;2023-12-07T12:28:43;98955.72;;;10.78;83.22
27729;BME280;15126;42.186;24.340;2023-12-07T12:31:16;98970.59;;;10.88;83.11
27729;BME280;15126;42.186;24.340;2023-12-07T12:33:49;98948.63;;;10.61;82.82
27729;BME280;15126;42.186;24.340;2023-12-07T12:36:18;98944.25;;;10.60;82.00
27729;BME280;15126;42.186;24.340;2023-12-07T12:38:49;98971.03;;;10.86;82.42
27729;BME280;15126;42.186;24.340;2023-12-07T12:41:19;98965.38;;;10.90;82.66
27729;BME280;15126;42.186;24.340;2023-12-07T12:43:46;98975.38;;;10.87;82.61
27729;BME280;15126;42.186;24.340;2023-12-07T12:46:14;98967.25;;;10.93;82.09
27729;BME280;15126;42.186;24.340;2023-12-07T12:48:56;98978.16;;;10.87;82.84
27729;BME280;15126;42.186;24.340;2023-12-07T12:51:25;98966.00;;;10.81;83.51
27729;BME280;15126;42.186;24.340;2023-12-07T12:53:55;98981.63;;;10.79;83.79
27729;BME280;15126;42.186;24.340;2023-12-07T12:56:26;98959.94;;;10.70;83.23
27729;BME280;15126;42.186;24.340;2023-12-07T12:58:54;98980.94;;;10.87;82.77
27729;BME280;15126;42.186;24.340;2023-12-07T13:01:22;98988.81;;;10.92;83.08
27729;BME280;15126;42.186;24.340;2023-12-07T13:03:49;98977.44;;;10.99;82.67